Skip to content

ILHF – AWS-metar toimii, mutta mikä on oikea QNH?

Malmin Ilmailukerho ry Forums Keskustelu ILHF – AWS-metar toimii, mutta mikä on oikea QNH?

  • This topic is empty.
Viewing 1 reply thread
  • Author
    Posts
    • #9165
      Miika Asunta
      Participant

      Ilmatieteenlaitos purki Malmin meteon laitteet ja asensi tilalle uuden automaattisen säähavaintoaseman, joka löytyy http://www.ilmailusaa.fi -sivustolta AWS-metarien luettelosta tunnuksella ILHF.

      AWS-metar päivittyy 10 minuutin välein, havaintoaika on 10 minuuttia vanha, kuitenkin enintään 20 minuuttia, jos päivitys on onnistunut ongelmitta.

      QNH/QFF

      Asennuksen yhteydessä kävi kuitenkin ilmi että AWS-listauksessa oleva ilmanpainelukema voi olla Helsinki-Vantaan havaintoon nähden jopa kolme millibaaria suurempi, ilmeisesti pyöristysvirheen takia. Odottelemme tähän korjausta. Aiemminkin Malmin ja Vantaan havainnoissa on voinut olla yhden millibaarin ero.

      Tornissa kenttäpäivystäjän käytössä olevassa näyttölaitteessa on ajantasainen suoraan anturista saatu lukema, joka näyttäisi olevan hyvin lähellä Helsinki-Vantaan metareissa ilmoitettuja arvoja.

      Tuuli

      AWS-metarissa kerrotaan 10 minuutin keskituuli.

      Vanha tuulimittari jäi myös käyttöön, joten kenttäpäivystäjältä saa edelleen pyynnöstä 10 ja 2 minuutin keskituulen sekä reaaliaikaisen tuulimittarin lukeman. Tätä voi koillistuulilla (usein ”wind variable” läheisestä metsänreunasta ja kukkulasta johtuen) verrata AWS:n ilmoittamaan lukemaan.

      Kerhohuoneen info-monitori

      ILHF-havainto päivitetään 10 minuutin välein. Sen alta löytyy EFHK metar ja taf, jotka haetaan puolen tunnin välein. Tilan säästämiseksi edellistä metaria ei enää näytetä.

    • #10521
      Miika Asunta
      Participant

      AWS ILHF 121530Z AUTO 20008KT 9999 FEW006 M01/M02 Q1026=

      METAR EFHK 121520Z 21012KT 9999 FEW005 SCT200 M00/M02 Q1023 NOSIG

      Tornissa 1024.5

      Vika on korjattu: 13.3. klo 8.50

      Infotaulun päivitysaika AWS-timestamp

      2017-03-13 08:21:26 2017-03-13 06:10:01 ILHF 130610Z AUTO 23007KT 9999 OVC004 01/M00 Q1026=

      2017-03-13 08:31:38 2017-03-13 06:20:01 ILHF 130620Z AUTO 23008KT 9999 OVC004 01/M00 Q1026=

      2017-03-13 08:41:58 2017-03-13 06:30:01 ILHF 130630Z AUTO 23006KT 9999 OVC004 01/M00 Q1026=

      2017-03-13 08:52:25 2017-03-13 06:40:01 ILHF 130640Z AUTO 22008KT 9999 OVC004 01/M00 Q1026=

      2017-03-13 09:01:22 2017-03-13 06:50:01 ILHF 130650Z AUTO 23008KT 9999 OVC004 01/00 Q1024=

      2017-03-13 09:11:24 2017-03-13 07:00:00 ILHF 130700Z AUTO 22007KT 9999 OVC004 01/00 Q1024=

Viewing 1 reply thread
  • You must be logged in to reply to this topic.

Aihe: .